createdAt,value
2023-01-19T00:00:03.063Z,-1.6
2023-01-19T00:01:04.480Z,-1.6
2023-01-19T00:02:06.059Z,-1.6
2023-01-19T00:03:07.241Z,-1.6
2023-01-19T00:04:08.691Z,-1.6
2023-01-19T00:05:09.314Z,-1.6
2023-01-19T00:06:10.257Z,-1.6
2023-01-19T00:07:11.680Z,-1.6
2023-01-19T00:08:12.818Z,-1.6
2023-01-19T00:09:14.008Z,-1.6
2023-01-19T00:10:14.631Z,-1.6
2023-01-19T00:11:15.530Z,-1.7
2023-01-19T00:12:16.568Z,-1.7
2023-01-19T00:13:17.178Z,-1.7
2023-01-19T00:14:18.366Z,-1.7
2023-01-19T00:15:19.499Z,-1.7
2023-01-19T00:16:20.175Z,-1.7
2023-01-19T00:17:21.483Z,-1.8
2023-01-19T00:18:22.115Z,-1.8
2023-01-19T00:19:23.248Z,-1.8
2023-01-19T00:20:24.383Z,-1.8
2023-01-19T00:21:25.600Z,-1.8
2023-01-19T00:22:26.703Z,-1.8
2023-01-19T00:23:27.608Z,-1.8
2023-01-19T00:24:28.756Z,-1.8
2023-01-19T00:25:29.637Z,-1.8
2023-01-19T00:26:30.964Z,-1.8
2023-01-19T00:27:32.379Z,-1.7
2023-01-19T00:28:33.233Z,-1.8
2023-01-19T00:29:33.868Z,-1.7
2023-01-19T00:30:34.991Z,-1.7
2023-01-19T00:31:35.673Z,-1.7
2023-01-19T00:32:36.924Z,-1.7
2023-01-19T00:33:37.779Z,-1.7
2023-01-19T00:34:38.930Z,-1.7
2023-01-19T00:35:40.087Z,-1.6
2023-01-19T00:36:41.532Z,-1.6
2023-01-19T00:37:42.414Z,-1.6
2023-01-19T00:38:43.567Z,-1.6
2023-01-19T00:39:44.703Z,-1.5
2023-01-19T00:40:45.317Z,-1.5
2023-01-19T00:41:46.452Z,-1.5
2023-01-19T00:42:47.630Z,-1.5
2023-01-19T00:43:48.898Z,-1.5
2023-01-19T00:44:49.812Z,-1.4
2023-01-19T00:45:50.657Z,-1.4
2023-01-19T00:46:51.698Z,-1.4
2023-01-19T00:47:53.133Z,-1.4
2023-01-19T00:48:54.555Z,-1.4
2023-01-19T00:49:55.428Z,-1.4
2023-01-19T00:50:56.267Z,-1.3
2023-01-19T00:51:57.147Z,-1.3
2023-01-19T00:52:58.604Z,-1.3
2023-01-19T00:54:00.540Z,-1.3
2023-01-19T00:55:01.244Z,-1.3
2023-01-19T00:56:02.408Z,-1.3
2023-01-19T00:57:03.821Z,-1.3
2023-01-19T00:58:04.720Z,-1.3
2023-01-19T00:59:06.137Z,-1.2
2023-01-19T01:00:07.060Z,-1.2
2023-01-19T01:01:08.348Z,-1.2
2023-01-19T01:02:09.937Z,-1.2
2023-01-19T01:03:11.777Z,-1.2
2023-01-19T01:04:13.118Z,-1.2
2023-01-19T01:05:14.264Z,-1.2
2023-01-19T01:06:15.401Z,-1.2
2023-01-19T01:07:17.088Z,-1.1
2023-01-19T01:08:17.993Z,-1.1
2023-01-19T01:09:19.141Z,-1.1
2023-01-19T01:10:19.993Z,-1.1
2023-01-19T01:11:21.187Z,-1.1
2023-01-19T01:12:22.086Z,-1.1
2023-01-19T01:13:25.465Z,-1.1
2023-01-19T01:14:29.537Z,-1.1
2023-01-19T01:15:31.046Z,-1.1
2023-01-19T01:16:32.300Z,-1
2023-01-19T01:17:33.381Z,-1
2023-01-19T01:18:34.799Z,-1
2023-01-19T01:19:35.997Z,-1
2023-01-19T01:20:37.177Z,-1
2023-01-19T01:21:38.062Z,-1
2023-01-19T01:22:39.507Z,-1
2023-01-19T01:23:40.890Z,-1
2023-01-19T01:24:42.324Z,-1
2023-01-19T01:25:43.175Z,-1
2023-01-19T01:26:44.305Z,-0.9
2023-01-19T01:27:45.434Z,-0.9
2023-01-19T01:28:46.303Z,-0.9
2023-01-19T01:29:47.206Z,-0.9
2023-01-19T01:30:48.616Z,-0.9
2023-01-19T01:31:49.566Z,-0.9
2023-01-19T01:32:51.140Z,-0.9
2023-01-19T01:33:52.001Z,-0.9
2023-01-19T01:34:53.143Z,-0.9
2023-01-19T01:35:54.553Z,-0.9
2023-01-19T01:36:55.967Z,-0.9
2023-01-19T01:37:57.413Z,-0.9
2023-01-19T01:38:58.525Z,-0.9
2023-01-19T01:39:59.725Z,-0.9
2023-01-19T01:41:00.880Z,-0.9
2023-01-19T01:42:01.987Z,-0.9
2023-01-19T01:43:03.393Z,-0.9
2023-01-19T01:44:04.728Z,-0.9
2023-01-19T01:45:05.639Z,-0.9
2023-01-19T01:46:06.601Z,-0.9
2023-01-19T01:47:07.459Z,-0.9
2023-01-19T01:48:08.318Z,-0.9
2023-01-19T01:49:09.456Z,-0.9
2023-01-19T01:50:10.621Z,-0.9
2023-01-19T01:51:11.507Z,-0.8
2023-01-19T01:52:12.360Z,-0.8
2023-01-19T01:53:13.568Z,-0.8
2023-01-19T01:54:15.034Z,-0.8
2023-01-19T01:55:15.740Z,-0.8
2023-01-19T01:56:16.882Z,-0.8
2023-01-19T01:57:18.055Z,-0.8
2023-01-19T01:58:19.232Z,-0.8
2023-01-19T01:59:20.133Z,-0.8
2023-01-19T02:00:21.321Z,-0.8
2023-01-19T02:01:22.598Z,-0.7
2023-01-19T02:02:24.370Z,-0.7
2023-01-19T02:03:25.767Z,-0.7
2023-01-19T02:04:26.710Z,-0.7
2023-01-19T02:05:27.868Z,-0.7
2023-01-19T02:06:28.987Z,-0.7
2023-01-19T02:07:29.845Z,-0.7
2023-01-19T02:08:31.021Z,-0.7
2023-01-19T02:09:32.405Z,-0.6
2023-01-19T02:10:33.046Z,-0.6
2023-01-19T02:11:34.167Z,-0.6
2023-01-19T02:12:35.334Z,-0.6
2023-01-19T02:13:36.239Z,-0.6
2023-01-19T02:14:37.375Z,-0.6
2023-01-19T02:15:38.809Z,-0.6
2023-01-19T02:16:39.972Z,-0.6
2023-01-19T02:17:41.016Z,-0.5
2023-01-19T02:18:42.134Z,-0.5
2023-01-19T02:19:43.275Z,-0.5
2023-01-19T02:20:44.198Z,-0.5
2023-01-19T02:21:45.090Z,-0.5
2023-01-19T02:22:45.985Z,-0.5
2023-01-19T02:23:46.870Z,-0.5
2023-01-19T02:24:47.975Z,-0.5
2023-01-19T02:25:49.404Z,-0.5
2023-01-19T02:26:50.296Z,-0.5
2023-01-19T02:27:50.915Z,-0.5
2023-01-19T02:28:52.204Z,-0.5
2023-01-19T02:29:53.341Z,-0.5
2023-01-19T02:30:54.579Z,-0.5
2023-01-19T02:31:55.831Z,-0.5
2023-01-19T02:32:56.727Z,-0.5
2023-01-19T02:33:57.345Z,-0.5
2023-01-19T02:34:58.776Z,-0.5
2023-01-19T02:35:59.677Z,-0.5
2023-01-19T02:37:01.097Z,-0.5
2023-01-19T02:38:02.496Z,-0.5
2023-01-19T02:39:03.665Z,-0.5
2023-01-19T02:40:04.535Z,-0.5
2023-01-19T02:41:05.408Z,-0.5
2023-01-19T02:42:06.534Z,-0.5
2023-01-19T02:43:07.431Z,-0.5
2023-01-19T02:44:08.566Z,-0.5
2023-01-19T02:45:09.484Z,-0.5
2023-01-19T02:46:10.568Z,-0.4
2023-01-19T02:47:12.405Z,-0.5
2023-01-19T02:48:13.027Z,-0.4
2023-01-19T02:49:13.900Z,-0.4
2023-01-19T02:50:14.776Z,-0.5
2023-01-19T02:51:15.924Z,-0.4
2023-01-19T02:52:17.600Z,-0.4
2023-01-19T02:53:18.748Z,-0.4
2023-01-19T02:54:19.954Z,-0.4
2023-01-19T02:55:20.970Z,-0.4
2023-01-19T02:56:22.108Z,-0.5
2023-01-19T02:57:22.963Z,-0.5
2023-01-19T02:58:24.100Z,-0.4
2023-01-19T02:59:25.014Z,-0.4
2023-01-19T03:00:26.426Z,-0.4
2023-01-19T03:01:27.440Z,-0.4
2023-01-19T03:02:29.343Z,-0.5
2023-01-19T03:03:30.851Z,-0.5
2023-01-19T03:04:31.466Z,-0.4
2023-01-19T03:05:32.351Z,-0.5
2023-01-19T03:06:33.498Z,-0.5
2023-01-19T03:07:34.630Z,-0.5
2023-01-19T03:08:35.764Z,-0.4
2023-01-19T03:09:36.407Z,-0.5
2023-01-19T03:10:37.583Z,-0.5
2023-01-19T03:11:39.027Z,-0.5
2023-01-19T03:12:40.180Z,-0.5
2023-01-19T03:13:41.084Z,-0.5
2023-01-19T03:14:42.521Z,-0.5
2023-01-19T03:15:43.421Z,-0.5
2023-01-19T03:16:45.072Z,-0.5
2023-01-19T03:17:46.465Z,-0.5
2023-01-19T03:18:47.874Z,-0.5
2023-01-19T03:19:48.492Z,-0.5
2023-01-19T03:20:49.385Z,-0.5
2023-01-19T03:21:50.305Z,-0.4
2023-01-19T03:22:51.166Z,-0.4
2023-01-19T03:23:52.386Z,-0.4
2023-01-19T03:25:58.535Z,-0.4
2023-01-19T03:26:59.663Z,-0.4
2023-01-19T03:28:00.502Z,-0.4
2023-01-19T03:29:01.910Z,-0.4
2023-01-19T03:30:03.049Z,-0.4
2023-01-19T03:31:03.994Z,-0.4
2023-01-19T03:32:05.255Z,-0.4
2023-01-19T03:33:06.425Z,-0.4
2023-01-19T03:34:07.840Z,-0.4
2023-01-19T03:35:09.015Z,-0.4
2023-01-19T03:36:10.153Z,-0.4
2023-01-19T03:37:10.795Z,-0.4
2023-01-19T03:38:12.194Z,-0.4
2023-01-19T03:39:13.606Z,-0.4
2023-01-19T03:40:15.025Z,-0.4
2023-01-19T03:41:16.477Z,-0.4
2023-01-19T03:42:17.885Z,-0.4
2023-01-19T03:43:18.484Z,-0.4
2023-01-19T03:44:19.349Z,-0.4
2023-01-19T03:45:20.758Z,-0.4
2023-01-19T03:46:21.971Z,-0.4
2023-01-19T03:47:22.853Z,-0.4
2023-01-19T03:48:23.975Z,-0.4
2023-01-19T03:49:25.394Z,-0.5
2023-01-19T03:50:26.530Z,-0.5
2023-01-19T03:51:27.427Z,-0.5
2023-01-19T03:52:28.591Z,-0.5
2023-01-19T03:53:29.745Z,-0.5
2023-01-19T03:54:30.606Z,-0.5
2023-01-19T03:55:32.023Z,-0.5
2023-01-19T03:56:32.672Z,-0.5
2023-01-19T03:57:33.787Z,-0.5
2023-01-19T03:58:34.915Z,-0.5
2023-01-19T03:59:36.276Z,-0.5
2023-01-19T04:00:37.405Z,-0.5
2023-01-19T04:01:38.936Z,-0.5
2023-01-19T04:02:40.608Z,-0.5
2023-01-19T04:03:42.192Z,-0.5
2023-01-19T04:04:43.632Z,-0.5
2023-01-19T04:05:44.778Z,-0.5
2023-01-19T04:06:45.907Z,-0.5
2023-01-19T04:07:47.120Z,-0.5
2023-01-19T04:08:48.505Z,-0.5
2023-01-19T04:09:49.921Z,-0.6
2023-01-19T04:10:51.099Z,-0.6
2023-01-19T04:11:52.543Z,-0.6
2023-01-19T04:12:53.388Z,-0.6
2023-01-19T04:13:54.275Z,-0.6
2023-01-19T04:14:55.424Z,-0.6
2023-01-19T04:15:56.647Z,-0.6
2023-01-19T04:16:58.296Z,-0.6
2023-01-19T04:17:59.735Z,-0.6
2023-01-19T04:19:00.844Z,-0.6
2023-01-19T04:20:01.994Z,-0.6
2023-01-19T04:21:03.201Z,-0.6
2023-01-19T04:22:04.611Z,-0.6
2023-01-19T04:23:06.511Z,-0.6
2023-01-19T04:24:07.622Z,-0.6
2023-01-19T04:25:08.493Z,-0.6
2023-01-19T04:26:09.891Z,-0.6
2023-01-19T04:27:11.330Z,-0.6
2023-01-19T04:28:12.747Z,-0.6
2023-01-19T04:29:14.174Z,-0.6
2023-01-19T04:30:15.593Z,-0.5
2023-01-19T04:31:17.042Z,-0.5
2023-01-19T04:32:18.144Z,-0.5
2023-01-19T04:33:19.295Z,-0.5
2023-01-19T04:34:20.413Z,-0.5
2023-01-19T04:35:21.605Z,-0.5
2023-01-19T04:36:23.003Z,-0.5
2023-01-19T04:37:23.906Z,-0.5
2023-01-19T04:38:25.067Z,-0.5
2023-01-19T04:39:26.612Z,-0.4
2023-01-19T04:40:28.035Z,-0.4
2023-01-19T04:41:30.304Z,-0.4
2023-01-19T04:42:32.011Z,-0.4
2023-01-19T04:43:33.821Z,-0.4
2023-01-19T04:44:34.666Z,-0.4
2023-01-19T04:45:35.587Z,-0.4
2023-01-19T04:46:36.741Z,-0.4
2023-01-19T04:47:37.632Z,-0.3
2023-01-19T04:48:40.631Z,-0.3
2023-01-19T04:49:43.090Z,-0.3
2023-01-19T04:50:44.272Z,-0.3
2023-01-19T04:51:45.408Z,-0.3
2023-01-19T04:52:46.310Z,-0.3
2023-01-19T04:53:47.735Z,-0.3
2023-01-19T04:54:48.858Z,-0.3
2023-01-19T04:55:49.997Z,-0.3
2023-01-19T04:56:51.425Z,-0.3
2023-01-19T04:57:52.299Z,-0.3
2023-01-19T04:58:53.714Z,-0.3
2023-01-19T04:59:55.122Z,-0.3
2023-01-19T05:00:56.323Z,-0.3
2023-01-19T05:01:57.373Z,-0.3
2023-01-19T05:02:59.011Z,-0.3
2023-01-19T05:04:01.909Z,-0.3
2023-01-19T05:05:03.046Z,-0.3
2023-01-19T05:06:04.454Z,-0.3
2023-01-19T05:07:05.872Z,-0.3
2023-01-19T05:08:07.048Z,-0.3
2023-01-19T05:09:08.475Z,-0.3
2023-01-19T05:10:09.886Z,-0.3
2023-01-19T05:11:11.060Z,-0.4
2023-01-19T05:12:12.475Z,-0.4
2023-01-19T05:13:13.659Z,-0.4
2023-01-19T05:14:15.057Z,-0.4
2023-01-19T05:15:15.935Z,-0.4
2023-01-19T05:16:17.361Z,-0.4
2023-01-19T05:17:18.897Z,-0.4
2023-01-19T05:18:20.032Z,-0.4
2023-01-19T05:19:21.458Z,-0.4
2023-01-19T05:20:22.592Z,-0.4
2023-01-19T05:21:24.015Z,-0.4
2023-01-19T05:22:25.415Z,-0.4
2023-01-19T05:23:26.560Z,-0.4
2023-01-19T05:24:27.695Z,-0.4
2023-01-19T05:25:28.885Z,-0.4
2023-01-19T05:26:30.296Z,-0.4
2023-01-19T05:27:31.432Z,-0.4
2023-01-19T05:28:32.595Z,-0.4
2023-01-19T05:29:34.148Z,-0.4
2023-01-19T05:30:35.083Z,-0.4
2023-01-19T05:31:36.594Z,-0.4
2023-01-19T05:32:38.274Z,-0.4
2023-01-19T05:33:39.670Z,-0.4
2023-01-19T05:34:40.578Z,-0.4
2023-01-19T05:35:41.701Z,-0.4
2023-01-19T05:36:42.844Z,-0.4
2023-01-19T05:37:43.871Z,-0.4
2023-01-19T05:38:45.013Z,-0.4
2023-01-19T05:39:45.640Z,-0.4
2023-01-19T05:40:47.052Z,-0.4
2023-01-19T05:41:47.914Z,-0.4
2023-01-19T05:42:49.055Z,-0.4
2023-01-19T05:43:49.933Z,-0.4
2023-01-19T05:44:51.072Z,-0.4
2023-01-19T05:45:52.456Z,-0.4
2023-01-19T05:46:53.442Z,-0.4
2023-01-19T05:47:54.757Z,-0.4
2023-01-19T05:48:55.878Z,-0.4
2023-01-19T05:49:57.323Z,-0.5
2023-01-19T05:50:58.477Z,-0.5
2023-01-19T05:51:59.697Z,-0.5
2023-01-19T05:53:01.226Z,-0.5
2023-01-19T05:54:04.031Z,-0.5
2023-01-19T05:55:05.151Z,-0.5
2023-01-19T05:56:06.563Z,-0.5
2023-01-19T05:57:07.978Z,-0.5
2023-01-19T05:58:09.177Z,-0.5
2023-01-19T05:59:10.370Z,-0.5
2023-01-19T06:00:11.753Z,-0.5
2023-01-19T06:01:12.397Z,-0.5
2023-01-19T06:02:13.866Z,-0.5
2023-01-19T06:03:15.540Z,-0.5
2023-01-19T06:04:16.672Z,-0.5
2023-01-19T06:05:17.839Z,-0.5
2023-01-19T06:06:18.962Z,-0.5
2023-01-19T06:07:20.108Z,-0.5
2023-01-19T06:08:21.296Z,-0.5
2023-01-19T06:09:22.491Z,-0.5
2023-01-19T06:10:23.901Z,-0.5
2023-01-19T06:11:25.305Z,-0.5
2023-01-19T06:12:26.215Z,-0.5
2023-01-19T06:13:27.618Z,-0.5
2023-01-19T06:14:28.840Z,-0.5
2023-01-19T06:15:29.937Z,-0.5
2023-01-19T06:16:31.113Z,-0.5
2023-01-19T06:17:32.332Z,-0.5
2023-01-19T06:18:33.551Z,-0.5
2023-01-19T06:19:34.716Z,-0.5
2023-01-19T06:20:36.111Z,-0.4
2023-01-19T06:21:37.800Z,-0.4
2023-01-19T06:22:38.682Z,-0.5
2023-01-19T06:23:39.865Z,-0.5
2023-01-19T06:24:41.053Z,-0.5
2023-01-19T06:25:41.956Z,-0.5
2023-01-19T06:26:43.376Z,-0.5
2023-01-19T06:27:44.803Z,-0.5
2023-01-19T06:28:46.204Z,-0.4
2023-01-19T06:29:47.376Z,-0.4
2023-01-19T06:30:48.497Z,-0.4
2023-01-19T06:31:49.912Z,-0.4
2023-01-19T06:32:51.474Z,-0.4
2023-01-19T06:33:52.404Z,-0.4
2023-01-19T06:34:54.159Z,-0.4
2023-01-19T06:35:55.687Z,-0.4
2023-01-19T06:36:56.311Z,-0.3
2023-01-19T06:37:57.479Z,-0.3
2023-01-19T06:38:58.938Z,-0.3
2023-01-19T06:40:00.126Z,-0.3
2023-01-19T06:41:00.982Z,-0.3
2023-01-19T06:42:02.120Z,-0.3
2023-01-19T06:43:03.584Z,-0.2
2023-01-19T06:44:05.093Z,-0.2
2023-01-19T06:45:06.657Z,-0.2
2023-01-19T06:46:08.222Z,-0.2
2023-01-19T06:47:14.518Z,-0.2
2023-01-19T06:48:17.734Z,-0.2
2023-01-19T06:49:18.696Z,-0.1
2023-01-19T06:50:19.854Z,-0.1
2023-01-19T06:51:20.969Z,-0.1
2023-01-19T06:52:22.103Z,-0.1
2023-01-19T06:53:22.736Z,-0.1
2023-01-19T06:54:23.673Z,-0.1
2023-01-19T06:55:27.658Z,-0.1
2023-01-19T06:56:29.299Z,-0.1
2023-01-19T06:57:30.428Z,-0.1
2023-01-19T06:58:31.847Z,-0.1
2023-01-19T06:59:32.709Z,-0.1
2023-01-19T07:00:34.240Z,-0.1
2023-01-19T07:01:35.822Z,-0.1
2023-01-19T07:02:37.925Z,-0.1
2023-01-19T07:03:39.309Z,-0.1
2023-01-19T07:04:39.922Z,-0.1
2023-01-19T07:05:41.051Z,-0.1
2023-01-19T07:06:42.228Z,-0.1
2023-01-19T07:07:43.410Z,-0.1
2023-01-19T07:08:44.291Z,-0.1
2023-01-19T07:09:45.426Z,-0.1
2023-01-19T07:11:22.531Z,-0.1
2023-01-19T07:12:33.840Z,-0.1
2023-01-19T07:13:35.595Z,-0.1
2023-01-19T07:14:36.792Z,-0.1
2023-01-19T07:15:37.929Z,-0.1
2023-01-19T07:16:39.036Z,-0.1
2023-01-19T07:17:40.574Z,-0.1
2023-01-19T07:18:41.712Z,-0.1
2023-01-19T07:19:42.858Z,-0.1
2023-01-19T07:20:44.151Z,-0.1
2023-01-19T07:21:45.561Z,-0.1
2023-01-19T07:22:46.982Z,0
2023-01-19T07:23:48.122Z,-0.1
2023-01-19T07:24:49.549Z,0
2023-01-19T07:25:50.438Z,0
2023-01-19T07:26:51.859Z,0
2023-01-19T07:27:53.268Z,0
2023-01-19T07:28:54.123Z,0
2023-01-19T07:29:55.040Z,0
2023-01-19T07:30:56.460Z,0
2023-01-19T07:31:58.447Z,0
2023-01-19T07:33:00.288Z,0
2023-01-19T07:34:02.656Z,0
2023-01-19T07:35:03.809Z,0
2023-01-19T07:36:04.955Z,0.1
2023-01-19T07:37:06.119Z,0.1
2023-01-19T07:38:07.271Z,0.1
2023-01-19T07:39:08.135Z,0.1
2023-01-19T07:40:09.038Z,0.1
2023-01-19T07:41:10.607Z,0.1
2023-01-19T07:42:11.243Z,0.1
2023-01-19T07:43:12.382Z,0.1
2023-01-19T07:44:13.839Z,0.1
2023-01-19T07:45:14.728Z,0.1
2023-01-19T07:46:16.021Z,0.1
2023-01-19T07:47:17.205Z,0.1
2023-01-19T07:48:18.326Z,0.1
2023-01-19T07:49:19.742Z,0.1
2023-01-19T07:50:20.686Z,0.1
2023-01-19T07:51:21.931Z,0.1
2023-01-19T07:52:23.343Z,0.1
2023-01-19T07:53:24.761Z,0.2
2023-01-19T07:54:25.663Z,0.1
2023-01-19T07:55:26.528Z,0.2
2023-01-19T07:56:27.424Z,0.2
2023-01-19T07:57:28.940Z,0.2
2023-01-19T07:58:30.348Z,0.2
2023-01-19T07:59:31.485Z,0.2
2023-01-19T08:00:32.633Z,0.2
2023-01-19T08:01:33.910Z,0.2
2023-01-19T08:02:35.738Z,0.2
2023-01-19T08:03:37.163Z,0.3
2023-01-19T08:04:38.620Z,0.3
2023-01-19T08:05:40.163Z,0.3
2023-01-19T08:06:41.431Z,0.3
2023-01-19T08:07:42.847Z,0.3
2023-01-19T08:08:43.990Z,0.3
2023-01-19T08:09:45.404Z,0.3
2023-01-19T08:10:46.543Z,0.3
2023-01-19T08:11:47.964Z,0.4
2023-01-19T08:12:49.087Z,0.4
2023-01-19T08:13:50.510Z,0.4
2023-01-19T08:14:51.637Z,0.4
2023-01-19T08:15:52.804Z,0.5
2023-01-19T08:16:54.694Z,0.5
2023-01-19T08:17:56.087Z,0.5
2023-01-19T08:18:57.507Z,0.6
2023-01-19T08:19:58.718Z,0.6
2023-01-19T08:20:59.825Z,0.6
2023-01-19T08:22:01.000Z,0.7
2023-01-19T08:23:02.606Z,0.7
2023-01-19T08:24:05.107Z,0.7
2023-01-19T08:25:06.825Z,0.8
2023-01-19T08:26:07.704Z,0.8
2023-01-19T08:27:08.887Z,0.8
2023-01-19T08:28:10.019Z,0.9
2023-01-19T08:29:11.168Z,0.9
2023-01-19T08:30:12.091Z,0.9
2023-01-19T08:31:20.334Z,1
2023-01-19T08:32:25.716Z,1
2023-01-19T08:33:27.353Z,1.1
2023-01-19T08:34:28.203Z,1.1
2023-01-19T08:35:29.633Z,1.2
2023-01-19T08:36:30.760Z,1.2
2023-01-19T08:37:34.129Z,1.3
2023-01-19T08:38:35.143Z,1.3
2023-01-19T08:39:36.057Z,1.3
2023-01-19T08:40:37.261Z,1.4
2023-01-19T08:41:38.430Z,1.4
2023-01-19T08:42:39.285Z,1.5
2023-01-19T08:43:40.438Z,1.5
2023-01-19T08:44:53.226Z,1.5
2023-01-19T08:45:59.679Z,1.5
2023-01-19T08:47:01.147Z,1.6
2023-01-19T08:48:03.116Z,1.6
2023-01-19T08:49:04.212Z,1.6
2023-01-19T08:50:05.409Z,1.7
2023-01-19T08:51:06.551Z,1.7
2023-01-19T08:52:07.952Z,1.7
2023-01-19T08:53:09.139Z,1.7
2023-01-19T08:54:10.045Z,1.7
2023-01-19T08:55:11.211Z,1.7
2023-01-19T08:56:12.595Z,1.7
2023-01-19T08:57:14.007Z,1.7
2023-01-19T08:58:15.425Z,1.6
2023-01-19T08:59:16.562Z,1.6
2023-01-19T09:00:17.788Z,1.6
2023-01-19T09:01:19.010Z,1.6
2023-01-19T09:02:20.808Z,1.7
2023-01-19T09:03:22.970Z,1.8
2023-01-19T09:04:24.710Z,1.7
2023-01-19T09:05:25.913Z,1.8
2023-01-19T09:06:27.322Z,1.8
2023-01-19T09:07:28.466Z,1.8
2023-01-19T09:08:35.894Z,1.9
2023-01-19T09:09:36.745Z,1.9
2023-01-19T09:10:37.957Z,1.9
2023-01-19T09:11:39.380Z,1.8
2023-01-19T09:12:40.798Z,1.8
2023-01-19T09:13:41.944Z,1.8
2023-01-19T09:14:43.718Z,1.8
2023-01-19T09:15:45.180Z,1.8
2023-01-19T09:16:46.785Z,1.8
2023-01-19T09:17:47.694Z,1.8
2023-01-19T09:18:48.623Z,1.8
2023-01-19T09:19:50.141Z,1.8
2023-01-19T09:20:51.322Z,1.8
2023-01-19T09:21:52.434Z,1.8
2023-01-19T09:22:53.352Z,1.8
2023-01-19T09:23:54.488Z,1.8
2023-01-19T09:24:55.634Z,1.8
2023-01-19T09:25:57.219Z,1.8
2023-01-19T09:26:58.620Z,1.8
2023-01-19T09:28:00.188Z,1.8
2023-01-19T09:29:02.412Z,1.9
2023-01-19T09:30:03.040Z,2
2023-01-19T09:31:04.298Z,2
2023-01-19T09:32:05.657Z,2.1
2023-01-19T09:33:06.517Z,2.2
2023-01-19T09:34:07.197Z,2.2
2023-01-19T09:35:08.860Z,2.3
2023-01-19T09:36:09.763Z,2.3
2023-01-19T09:37:10.371Z,2.4
2023-01-19T09:38:11.276Z,2.5
2023-01-19T09:39:12.405Z,2.6
2023-01-19T09:40:13.259Z,2.6
2023-01-19T09:41:14.685Z,2.7
2023-01-19T09:42:16.090Z,2.7
2023-01-19T09:43:17.223Z,2.8
2023-01-19T09:44:18.119Z,2.9
2023-01-19T09:45:18.981Z,2.9
2023-01-19T09:46:19.673Z,3
2023-01-19T09:47:20.713Z,3
2023-01-19T09:48:21.569Z,3
2023-01-19T09:49:22.736Z,3.1
2023-01-19T09:50:23.858Z,3.1
2023-01-19T09:51:24.730Z,3.2
2023-01-19T09:52:26.132Z,3.2
2023-01-19T09:53:27.263Z,3.2
2023-01-19T09:54:28.118Z,3.2
2023-01-19T09:55:29.017Z,3.3
2023-01-19T09:56:30.174Z,3.3
2023-01-19T09:57:31.328Z,3.3
2023-01-19T09:58:32.199Z,3.3
2023-01-19T09:59:33.044Z,3.4
2023-01-19T10:00:34.024Z,3.4
2023-01-19T10:01:35.553Z,3.4
2023-01-19T10:02:37.373Z,3.4
2023-01-19T10:03:38.758Z,3.5
2023-01-19T10:04:39.694Z,3.5
2023-01-19T10:05:40.814Z,3.5
2023-01-19T10:06:41.955Z,3.5
2023-01-19T10:07:43.089Z,3.5
2023-01-19T10:08:44.221Z,3.4
2023-01-19T10:09:45.359Z,3.5
2023-01-19T10:10:46.493Z,3.4
2023-01-19T10:11:53.270Z,3.3
2023-01-19T10:12:54.862Z,3.3
2023-01-19T10:13:55.729Z,3.2
2023-01-19T10:14:56.575Z,3.2
2023-01-19T10:15:57.824Z,3.2
2023-01-19T10:16:58.922Z,3.2
2023-01-19T10:18:00.646Z,3.2
2023-01-19T10:19:03.519Z,3.1
2023-01-19T10:20:04.683Z,3.1
2023-01-19T10:21:06.141Z,3.1
2023-01-19T10:22:08.578Z,3.1
2023-01-19T10:23:09.481Z,3.1
2023-01-19T10:24:10.320Z,3.1
2023-01-19T10:25:11.458Z,3.1
2023-01-19T10:26:12.361Z,3.2
2023-01-19T10:27:13.061Z,3.3
2023-01-19T10:28:14.255Z,3.4
2023-01-19T10:29:15.103Z,3.5
2023-01-19T10:30:16.484Z,3.7
2023-01-19T10:31:17.436Z,3.7
2023-01-19T10:32:18.577Z,3.9
2023-01-19T10:33:19.470Z,4
2023-01-19T10:34:23.463Z,4
2023-01-19T10:35:25.113Z,4
2023-01-19T10:36:26.733Z,4.1
2023-01-19T10:37:27.652Z,4.1
2023-01-19T10:38:28.575Z,4.1
2023-01-19T10:39:29.489Z,4.1
2023-01-19T10:40:30.913Z,4.1
2023-01-19T10:41:32.068Z,4
2023-01-19T10:42:33.285Z,4
2023-01-19T10:43:34.154Z,4
2023-01-19T10:44:35.159Z,4
2023-01-19T10:45:36.815Z,4
2023-01-19T10:46:37.893Z,3.9
2023-01-19T10:47:39.032Z,4
2023-01-19T10:48:39.925Z,3.9
2023-01-19T10:49:41.069Z,3.9
2023-01-19T10:50:41.784Z,3.9
2023-01-19T10:51:43.154Z,4
2023-01-19T10:52:44.340Z,4
2023-01-19T10:53:45.226Z,4
2023-01-19T10:54:46.694Z,4
2023-01-19T10:55:47.845Z,4
2023-01-19T10:56:48.744Z,4.1
2023-01-19T10:57:49.374Z,4.1
2023-01-19T10:58:50.545Z,4.1
2023-01-19T10:59:52.153Z,4.1
2023-01-19T11:00:53.412Z,4.1
2023-01-19T11:01:54.857Z,4.1
2023-01-19T11:02:56.847Z,4.2
2023-01-19T11:03:58.313Z,4.1
2023-01-19T11:04:59.483Z,4.1
2023-01-19T11:06:00.712Z,4.1
2023-01-19T11:07:02.127Z,4.1
2023-01-19T11:08:03.271Z,4.1
2023-01-19T11:09:04.671Z,4
2023-01-19T11:10:05.527Z,4
2023-01-19T11:11:06.151Z,3.9
2023-01-19T11:12:07.068Z,3.9
2023-01-19T11:13:08.207Z,3.9
2023-01-19T11:14:09.339Z,3.8
2023-01-19T11:15:10.197Z,3.8
2023-01-19T11:16:12.421Z,3.8
2023-01-19T11:17:13.675Z,3.7
2023-01-19T11:18:14.600Z,3.7
2023-01-19T11:19:15.464Z,3.7
2023-01-19T11:20:16.358Z,3.6
2023-01-19T11:21:17.719Z,3.6
2023-01-19T11:22:18.931Z,3.6
2023-01-19T11:23:20.080Z,3.5
2023-01-19T11:24:20.909Z,3.5
2023-01-19T11:25:22.044Z,3.5
2023-01-19T11:26:22.940Z,3.5
2023-01-19T11:27:23.562Z,3.5
2023-01-19T11:28:25.295Z,3.5
2023-01-19T11:29:26.676Z,3.4
2023-01-19T11:30:27.623Z,3.4
2023-01-19T11:31:28.390Z,3.4
2023-01-19T11:32:29.649Z,3.4
2023-01-19T11:33:30.583Z,3.4
2023-01-19T11:34:31.795Z,3.4
2023-01-19T11:35:32.641Z,3.4
2023-01-19T11:36:33.810Z,3.4
2023-01-19T11:37:35.210Z,3.4
2023-01-19T11:38:35.837Z,3.4
2023-01-19T11:39:36.955Z,3.4
2023-01-19T11:40:38.107Z,3.4
2023-01-19T11:41:39.237Z,3.3
2023-01-19T11:42:40.134Z,3.3
2023-01-19T11:43:48.902Z,3.3
2023-01-19T11:44:50.653Z,3.3
2023-01-19T11:45:51.317Z,3.2
2023-01-19T11:46:52.273Z,3.2
2023-01-19T11:47:53.213Z,3.2
2023-01-19T11:48:53.857Z,3.2
2023-01-19T11:49:54.975Z,3.2
2023-01-19T11:50:56.389Z,3.2
2023-01-19T11:51:57.273Z,3.2
2023-01-19T11:52:58.453Z,3.2
2023-01-19T11:53:59.598Z,3.2
2023-01-19T11:55:00.734Z,3.2
2023-01-19T11:56:02.144Z,3.1
2023-01-19T11:57:03.348Z,3.1
2023-01-19T11:58:04.840Z,3.1
2023-01-19T11:59:06.391Z,3.1
2023-01-19T12:00:07.234Z,3.1
2023-01-19T12:01:08.673Z,3.1
2023-01-19T12:02:09.669Z,3.1
2023-01-19T12:03:11.039Z,3.1
2023-01-19T12:04:12.171Z,3.1
2023-01-19T12:05:13.062Z,3.1
2023-01-19T12:06:13.983Z,3.1
2023-01-19T12:07:15.139Z,3.1
2023-01-19T12:08:16.376Z,3.2
2023-01-19T12:09:17.560Z,3.2
2023-01-19T12:10:18.964Z,3.2
2023-01-19T12:11:20.141Z,3.2
2023-01-19T12:12:21.561Z,3.3
2023-01-19T12:13:22.689Z,3.3
2023-01-19T12:14:23.991Z,3.3
2023-01-19T12:15:25.360Z,3.4
2023-01-19T12:16:26.012Z,3.4
2023-01-19T12:17:27.099Z,3.5
2023-01-19T12:18:28.535Z,3.5
2023-01-19T12:19:29.436Z,3.6
2023-01-19T12:20:30.318Z,3.7
2023-01-19T12:21:31.222Z,3.8
2023-01-19T12:22:32.382Z,3.9
2023-01-19T12:23:32.997Z,3.9
2023-01-19T12:24:34.154Z,4
2023-01-19T12:25:34.832Z,4
2023-01-19T12:26:35.969Z,4.1
2023-01-19T12:27:37.108Z,4.1
2023-01-19T12:28:38.244Z,4.1
2023-01-19T12:29:39.423Z,4.2
2023-01-19T12:30:41.233Z,4.2
2023-01-19T12:31:43.039Z,4.2
2023-01-19T12:32:44.713Z,4.2
2023-01-19T12:33:45.849Z,4.2
2023-01-19T12:34:46.472Z,4.2
2023-01-19T12:35:47.348Z,4.3
2023-01-19T12:36:48.236Z,4.2
2023-01-19T12:37:49.132Z,4.2
2023-01-19T12:38:49.737Z,4.2
2023-01-19T12:39:50.962Z,4.2
2023-01-19T12:40:52.353Z,4.2
2023-01-19T12:41:52.980Z,4.2
2023-01-19T12:42:54.112Z,4.2
2023-01-19T12:43:55.015Z,4.2
2023-01-19T12:44:55.917Z,4.2
2023-01-19T12:45:56.847Z,4.2
2023-01-19T12:46:57.933Z,4.1
2023-01-19T12:47:59.035Z,4.1
2023-01-19T12:48:59.939Z,4.1
2023-01-19T12:50:00.869Z,4.1
2023-01-19T12:51:01.971Z,4.1
2023-01-19T12:52:02.881Z,4.1
2023-01-19T12:53:04.041Z,4.1
2023-01-19T12:54:04.877Z,4.1
2023-01-19T12:55:06.906Z,4.1
2023-01-19T12:56:07.536Z,4.1
2023-01-19T12:57:08.436Z,4.1
2023-01-19T12:58:09.295Z,4.1
2023-01-19T12:59:10.195Z,4.1
2023-01-19T13:00:11.619Z,4.1
2023-01-19T13:01:12.898Z,4.1
2023-01-19T13:02:14.548Z,4.1
2023-01-19T13:03:15.946Z,4.1
2023-01-19T13:04:16.861Z,4.1
2023-01-19T13:05:18.006Z,4.1
2023-01-19T13:06:18.901Z,4.1
2023-01-19T13:07:20.035Z,4.1
2023-01-19T13:08:21.488Z,4.1
2023-01-19T13:09:22.887Z,4
2023-01-19T13:10:23.809Z,4
2023-01-19T13:11:26.839Z,4
2023-01-19T13:12:35.222Z,4
2023-01-19T13:13:36.354Z,4
2023-01-19T13:14:37.221Z,4
2023-01-19T13:15:38.173Z,4
2023-01-19T13:16:39.122Z,4
2023-01-19T13:17:40.036Z,4
2023-01-19T13:18:41.169Z,4
2023-01-19T13:19:42.014Z,4
2023-01-19T13:20:42.675Z,4
2023-01-19T13:21:44.746Z,4
2023-01-19T13:22:45.754Z,4
2023-01-19T13:23:46.928Z,4.1
2023-01-19T13:24:47.750Z,4.1
2023-01-19T13:25:48.391Z,4.1
2023-01-19T13:26:52.239Z,4.1
2023-01-19T13:27:53.141Z,4.2
2023-01-19T13:28:54.034Z,4.2
2023-01-19T13:29:54.661Z,4.2
2023-01-19T13:30:56.387Z,4.3
2023-01-19T13:31:58.028Z,4.3
2023-01-19T13:32:58.642Z,4.4
2023-01-19T13:33:59.782Z,4.4
2023-01-19T13:35:01.163Z,4.4
2023-01-19T13:36:03.212Z,4.4
2023-01-19T13:37:04.097Z,4.4
2023-01-19T13:38:05.263Z,4.4
2023-01-19T13:39:06.444Z,4.5
2023-01-19T13:40:07.347Z,4.5
2023-01-19T13:41:08.491Z,4.5
2023-01-19T13:42:09.380Z,4.6
2023-01-19T13:43:10.518Z,4.6
2023-01-19T13:44:11.650Z,4.6
2023-01-19T13:45:13.067Z,4.7
2023-01-19T13:46:14.017Z,4.7
2023-01-19T13:47:14.855Z,4.8
2023-01-19T13:48:16.271Z,4.8
2023-01-19T13:49:17.200Z,4.8
2023-01-19T13:50:18.752Z,4.8
2023-01-19T13:51:20.037Z,4.8
2023-01-19T13:52:20.927Z,4.8
2023-01-19T13:53:21.831Z,4.8
2023-01-19T13:54:23.040Z,4.8